sensor_id;sensor_type;location;lat;lon;timestamp;P1;durP1;ratioP1;P2;durP2;ratioP2
42876;SDS011;42341;40.498;72.818;2023-02-26T00:02:10;81.07;;;36.83;;
42876;SDS011;42341;40.498;72.818;2023-02-26T00:04:36;198.38;;;83.00;;
42876;SDS011;42341;40.498;72.818;2023-02-26T00:07:02;93.03;;;41.25;;
42876;SDS011;42341;40.498;72.818;2023-02-26T00:09:30;75.45;;;34.20;;
42876;SDS011;42341;40.498;72.818;2023-02-26T00:11:56;72.57;;;35.25;;
42876;SDS011;42341;40.498;72.818;2023-02-26T00:14:23;67.78;;;33.20;;
42876;SDS011;42341;40.498;72.818;2023-02-26T00:19:31;62.50;;;30.80;;
42876;SDS011;42341;40.498;72.818;2023-02-26T00:21:57;61.38;;;28.90;;
42876;SDS011;42341;40.498;72.818;2023-02-26T00:24:23;60.80;;;28.27;;
42876;SDS011;42341;40.498;72.818;2023-02-26T00:26:49;61.65;;;28.40;;
42876;SDS011;42341;40.498;72.818;2023-02-26T00:29:15;88.78;;;36.35;;
42876;SDS011;42341;40.498;72.818;2023-02-26T00:31:41;87.72;;;36.58;;
42876;SDS011;42341;40.498;72.818;2023-02-26T00:34:09;81.60;;;36.25;;
42876;SDS011;42341;40.498;72.818;2023-02-26T00:39:41;84.03;;;35.75;;
42876;SDS011;42341;40.498;72.818;2023-02-26T00:42:21;100.60;;;43.40;;
42876;SDS011;42341;40.498;72.818;2023-02-26T00:44:47;99.50;;;42.17;;
42876;SDS011;42341;40.498;72.818;2023-02-26T00:47:19;91.18;;;38.72;;
42876;SDS011;42341;40.498;72.818;2023-02-26T00:50:09;73.78;;;33.60;;
42876;SDS011;42341;40.498;72.818;2023-02-26T00:52:43;81.28;;;35.13;;
42876;SDS011;42341;40.498;72.818;2023-02-26T00:55:37;79.18;;;35.67;;
42876;SDS011;42341;40.498;72.818;2023-02-26T00:58:03;70.13;;;32.80;;
42876;SDS011;42341;40.498;72.818;2023-02-26T01:00:29;61.67;;;31.48;;
42876;SDS011;42341;40.498;72.818;2023-02-26T01:02:56;62.25;;;34.72;;
42876;SDS011;42341;40.498;72.818;2023-02-26T01:05:22;75.03;;;41.65;;
42876;SDS011;42341;40.498;72.818;2023-02-26T01:07:51;76.53;;;42.90;;
42876;SDS011;42341;40.498;72.818;2023-02-26T01:10:39;73.65;;;38.85;;
42876;SDS011;42341;40.498;72.818;2023-02-26T01:13:06;72.47;;;40.20;;
42876;SDS011;42341;40.498;72.818;2023-02-26T01:15:32;69.55;;;39.90;;
42876;SDS011;42341;40.498;72.818;2023-02-26T01:20:36;80.35;;;44.75;;
42876;SDS011;42341;40.498;72.818;2023-02-26T01:23:13;89.05;;;50.10;;
42876;SDS011;42341;40.498;72.818;2023-02-26T01:25:45;90.63;;;49.65;;
42876;SDS011;42341;40.498;72.818;2023-02-26T01:28:14;89.93;;;51.33;;
42876;SDS011;42341;40.498;72.818;2023-02-26T01:30:41;96.38;;;52.63;;
42876;SDS011;42341;40.498;72.818;2023-02-26T01:33:10;98.65;;;53.90;;
42876;SDS011;42341;40.498;72.818;2023-02-26T01:35:52;99.53;;;53.50;;
42876;SDS011;42341;40.498;72.818;2023-02-26T01:48:57;116.13;;;60.45;;
42876;SDS011;42341;40.498;72.818;2023-02-26T01:54:33;118.20;;;61.67;;
42876;SDS011;42341;40.498;72.818;2023-02-26T01:57:04;99.63;;;52.80;;
42876;SDS011;42341;40.498;72.818;2023-02-26T01:59:39;107.40;;;57.38;;
42876;SDS011;42341;40.498;72.818;2023-02-26T02:02:09;90.13;;;48.63;;
42876;SDS011;42341;40.498;72.818;2023-02-26T02:04:38;87.07;;;47.05;;
42876;SDS011;42341;40.498;72.818;2023-02-26T02:07:06;84.72;;;45.72;;
42876;SDS011;42341;40.498;72.818;2023-02-26T02:09:32;89.15;;;45.97;;
42876;SDS011;42341;40.498;72.818;2023-02-26T02:22:45;106.05;;;55.33;;
42876;SDS011;42341;40.498;72.818;2023-02-26T02:25:28;97.00;;;50.05;;
42876;SDS011;42341;40.498;72.818;2023-02-26T02:33:28;97.35;;;53.60;;
42876;SDS011;42341;40.498;72.818;2023-02-26T02:36:11;104.25;;;56.08;;
42876;SDS011;42341;40.498;72.818;2023-02-26T02:38:48;93.20;;;51.65;;
42876;SDS011;42341;40.498;72.818;2023-02-26T02:41:28;86.85;;;50.05;;
42876;SDS011;42341;40.498;72.818;2023-02-26T02:44:07;156.82;;;75.10;;
42876;SDS011;42341;40.498;72.818;2023-02-26T02:46:37;116.82;;;60.65;;
42876;SDS011;42341;40.498;72.818;2023-02-26T02:49:10;114.47;;;58.95;;
42876;SDS011;42341;40.498;72.818;2023-02-26T02:51:43;107.20;;;58.17;;
42876;SDS011;42341;40.498;72.818;2023-02-26T02:55:04;133.38;;;71.80;;
42876;SDS011;42341;40.498;72.818;2023-02-26T02:57:16;108.75;;;61.35;;
42876;SDS011;42341;40.498;72.818;2023-02-26T02:59:48;119.22;;;63.78;;
42876;SDS011;42341;40.498;72.818;2023-02-26T03:02:22;114.30;;;62.45;;
42876;SDS011;42341;40.498;72.818;2023-02-26T03:04:55;129.00;;;74.82;;
42876;SDS011;42341;40.498;72.818;2023-02-26T03:07:21;126.80;;;75.43;;
42876;SDS011;42341;40.498;72.818;2023-02-26T03:09:47;114.65;;;62.08;;
42876;SDS011;42341;40.498;72.818;2023-02-26T03:12:14;138.27;;;72.97;;
42876;SDS011;42341;40.498;72.818;2023-02-26T03:14:40;155.70;;;84.15;;
42876;SDS011;42341;40.498;72.818;2023-02-26T03:22:41;135.00;;;70.55;;
42876;SDS011;42341;40.498;72.818;2023-02-26T03:30:24;116.00;;;58.08;;
42876;SDS011;42341;40.498;72.818;2023-02-26T03:33:04;130.07;;;65.05;;
42876;SDS011;42341;40.498;72.818;2023-02-26T03:52:10;121.18;;;67.55;;
42876;SDS011;42341;40.498;72.818;2023-02-26T03:54:39;115.10;;;60.80;;
42876;SDS011;42341;40.498;72.818;2023-02-26T03:57:08;116.85;;;61.70;;
42876;SDS011;42341;40.498;72.818;2023-02-26T03:59:34;117.10;;;57.53;;
42876;SDS011;42341;40.498;72.818;2023-02-26T04:02:04;114.28;;;56.28;;
42876;SDS011;42341;40.498;72.818;2023-02-26T04:04:46;119.13;;;57.35;;
42876;SDS011;42341;40.498;72.818;2023-02-26T04:07:39;137.05;;;66.07;;
42876;SDS011;42341;40.498;72.818;2023-02-26T04:10:06;130.65;;;63.83;;
42876;SDS011;42341;40.498;72.818;2023-02-26T04:12:34;124.10;;;62.20;;
42876;SDS011;42341;40.498;72.818;2023-02-26T04:14:59;144.98;;;67.65;;
42876;SDS011;42341;40.498;72.818;2023-02-26T04:17:26;150.73;;;70.53;;
42876;SDS011;42341;40.498;72.818;2023-02-26T04:19:52;142.93;;;69.53;;
42876;SDS011;42341;40.498;72.818;2023-02-26T04:22:18;138.85;;;70.97;;
42876;SDS011;42341;40.498;72.818;2023-02-26T04:24:44;128.52;;;65.60;;
42876;SDS011;42341;40.498;72.818;2023-02-26T04:27:10;135.90;;;65.57;;
42876;SDS011;42341;40.498;72.818;2023-02-26T04:29:35;126.22;;;62.20;;
42876;SDS011;42341;40.498;72.818;2023-02-26T04:32:01;128.80;;;61.38;;
42876;SDS011;42341;40.498;72.818;2023-02-26T04:34:27;122.10;;;59.90;;
42876;SDS011;42341;40.498;72.818;2023-02-26T04:36:53;118.70;;;58.80;;
42876;SDS011;42341;40.498;72.818;2023-02-26T04:39:19;117.93;;;57.08;;
42876;SDS011;42341;40.498;72.818;2023-02-26T04:41:45;102.95;;;52.75;;
42876;SDS011;42341;40.498;72.818;2023-02-26T04:44:11;123.32;;;62.22;;
42876;SDS011;42341;40.498;72.818;2023-02-26T04:46:37;117.43;;;57.85;;
42876;SDS011;42341;40.498;72.818;2023-02-26T05:11:01;85.20;;;48.40;;
42876;SDS011;42341;40.498;72.818;2023-02-26T05:13:27;90.38;;;48.63;;
42876;SDS011;42341;40.498;72.818;2023-02-26T05:15:53;92.63;;;46.60;;
42876;SDS011;42341;40.498;72.818;2023-02-26T05:18:19;84.78;;;44.15;;
42876;SDS011;42341;40.498;72.818;2023-02-26T05:20:50;89.10;;;47.13;;
42876;SDS011;42341;40.498;72.818;2023-02-26T05:23:17;78.43;;;42.20;;
42876;SDS011;42341;40.498;72.818;2023-02-26T05:25:43;85.55;;;44.72;;
42876;SDS011;42341;40.498;72.818;2023-02-26T05:28:09;98.47;;;52.08;;
42876;SDS011;42341;40.498;72.818;2023-02-26T05:30:35;110.30;;;55.17;;
42876;SDS011;42341;40.498;72.818;2023-02-26T05:33:01;98.75;;;49.40;;
42876;SDS011;42341;40.498;72.818;2023-02-26T05:51:40;66.65;;;37.55;;
42876;SDS011;42341;40.498;72.818;2023-02-26T05:54:07;52.28;;;27.00;;
42876;SDS011;42341;40.498;72.818;2023-02-26T05:56:34;72.00;;;42.35;;
42876;SDS011;42341;40.498;72.818;2023-02-26T05:59:01;86.28;;;47.50;;
42876;SDS011;42341;40.498;72.818;2023-02-26T06:01:27;83.93;;;46.42;;
42876;SDS011;42341;40.498;72.818;2023-02-26T06:03:54;89.88;;;48.45;;
42876;SDS011;42341;40.498;72.818;2023-02-26T06:06:19;93.68;;;49.65;;
42876;SDS011;42341;40.498;72.818;2023-02-26T06:08:46;93.45;;;48.38;;
42876;SDS011;42341;40.498;72.818;2023-02-26T06:11:12;92.10;;;49.97;;
42876;SDS011;42341;40.498;72.818;2023-02-26T06:13:38;97.20;;;51.30;;
42876;SDS011;42341;40.498;72.818;2023-02-26T06:16:04;109.00;;;55.45;;
42876;SDS011;42341;40.498;72.818;2023-02-26T06:18:31;105.43;;;57.65;;
42876;SDS011;42341;40.498;72.818;2023-02-26T06:20:58;115.28;;;59.05;;
42876;SDS011;42341;40.498;72.818;2023-02-26T06:23:24;114.80;;;58.90;;
42876;SDS011;42341;40.498;72.818;2023-02-26T06:25:50;118.63;;;63.30;;
42876;SDS011;42341;40.498;72.818;2023-02-26T06:28:17;131.18;;;70.95;;
42876;SDS011;42341;40.498;72.818;2023-02-26T06:30:44;122.78;;;65.43;;
42876;SDS011;42341;40.498;72.818;2023-02-26T06:33:10;103.28;;;59.60;;
42876;SDS011;42341;40.498;72.818;2023-02-26T06:35:36;122.18;;;60.72;;
42876;SDS011;42341;40.498;72.818;2023-02-26T06:38:03;140.45;;;74.05;;
42876;SDS011;42341;40.498;72.818;2023-02-26T06:40:28;105.63;;;50.40;;
42876;SDS011;42341;40.498;72.818;2023-02-26T06:42:55;85.32;;;45.65;;
42876;SDS011;42341;40.498;72.818;2023-02-26T06:45:21;82.43;;;46.30;;
42876;SDS011;42341;40.498;72.818;2023-02-26T06:47:49;90.07;;;47.67;;
42876;SDS011;42341;40.498;72.818;2023-02-26T06:50:15;78.35;;;43.35;;
42876;SDS011;42341;40.498;72.818;2023-02-26T06:52:42;93.15;;;51.05;;
42876;SDS011;42341;40.498;72.818;2023-02-26T06:55:08;98.38;;;53.40;;
42876;SDS011;42341;40.498;72.818;2023-02-26T06:57:35;101.05;;;55.67;;
42876;SDS011;42341;40.498;72.818;2023-02-26T07:00:01;103.68;;;57.50;;
42876;SDS011;42341;40.498;72.818;2023-02-26T07:02:28;119.90;;;65.68;;
42876;SDS011;42341;40.498;72.818;2023-02-26T07:04:54;123.18;;;68.65;;
42876;SDS011;42341;40.498;72.818;2023-02-26T07:07:20;123.78;;;70.65;;
42876;SDS011;42341;40.498;72.818;2023-02-26T07:09:46;123.13;;;72.85;;
42876;SDS011;42341;40.498;72.818;2023-02-26T07:12:12;114.68;;;66.28;;
42876;SDS011;42341;40.498;72.818;2023-02-26T07:14:38;122.50;;;66.95;;
42876;SDS011;42341;40.498;72.818;2023-02-26T07:17:04;145.48;;;85.30;;
42876;SDS011;42341;40.498;72.818;2023-02-26T07:19:30;139.18;;;79.00;;
42876;SDS011;42341;40.498;72.818;2023-02-26T07:21:56;169.40;;;88.20;;
42876;SDS011;42341;40.498;72.818;2023-02-26T07:24:22;167.05;;;89.75;;
42876;SDS011;42341;40.498;72.818;2023-02-26T07:26:48;147.05;;;84.50;;
42876;SDS011;42341;40.498;72.818;2023-02-26T07:29:14;162.70;;;91.90;;
42876;SDS011;42341;40.498;72.818;2023-02-26T07:31:40;150.95;;;84.43;;
42876;SDS011;42341;40.498;72.818;2023-02-26T07:34:06;155.65;;;83.57;;
42876;SDS011;42341;40.498;72.818;2023-02-26T07:36:32;140.43;;;81.45;;
42876;SDS011;42341;40.498;72.818;2023-02-26T07:38:58;152.80;;;84.57;;
42876;SDS011;42341;40.498;72.818;2023-02-26T07:41:24;141.02;;;79.88;;
42876;SDS011;42341;40.498;72.818;2023-02-26T07:43:50;143.82;;;79.10;;
42876;SDS011;42341;40.498;72.818;2023-02-26T07:46:16;138.10;;;74.88;;
42876;SDS011;42341;40.498;72.818;2023-02-26T07:48:42;139.73;;;76.15;;
42876;SDS011;42341;40.498;72.818;2023-02-26T07:51:08;138.88;;;77.40;;
42876;SDS011;42341;40.498;72.818;2023-02-26T07:53:35;146.82;;;79.13;;
42876;SDS011;42341;40.498;72.818;2023-02-26T07:56:01;144.68;;;77.82;;
42876;SDS011;42341;40.498;72.818;2023-02-26T07:58:27;140.18;;;76.72;;
42876;SDS011;42341;40.498;72.818;2023-02-26T08:00:53;133.73;;;74.32;;
42876;SDS011;42341;40.498;72.818;2023-02-26T08:03:19;157.02;;;83.18;;
42876;SDS011;42341;40.498;72.818;2023-02-26T08:05:45;138.05;;;74.63;;
42876;SDS011;42341;40.498;72.818;2023-02-26T08:08:12;151.80;;;84.22;;
42876;SDS011;42341;40.498;72.818;2023-02-26T08:24:26;135.13;;;82.03;;
42876;SDS011;42341;40.498;72.818;2023-02-26T08:26:52;142.57;;;79.43;;
42876;SDS011;42341;40.498;72.818;2023-02-26T08:29:18;145.20;;;79.78;;
42876;SDS011;42341;40.498;72.818;2023-02-26T08:31:44;132.32;;;74.47;;
42876;SDS011;42341;40.498;72.818;2023-02-26T08:34:10;142.95;;;78.75;;
42876;SDS011;42341;40.498;72.818;2023-02-26T08:36:37;143.82;;;76.63;;
42876;SDS011;42341;40.498;72.818;2023-02-26T08:39:03;138.07;;;80.60;;
42876;SDS011;42341;40.498;72.818;2023-02-26T08:41:29;141.65;;;82.63;;
42876;SDS011;42341;40.498;72.818;2023-02-26T08:43:57;143.77;;;80.97;;
42876;SDS011;42341;40.498;72.818;2023-02-26T08:46:25;145.73;;;80.38;;
42876;SDS011;42341;40.498;72.818;2023-02-26T08:48:51;145.65;;;82.13;;
42876;SDS011;42341;40.498;72.818;2023-02-26T08:51:17;165.40;;;88.47;;
42876;SDS011;42341;40.498;72.818;2023-02-26T08:53:44;146.27;;;82.50;;
42876;SDS011;42341;40.498;72.818;2023-02-26T08:56:11;152.18;;;82.75;;
42876;SDS011;42341;40.498;72.818;2023-02-26T08:58:37;133.05;;;77.03;;
42876;SDS011;42341;40.498;72.818;2023-02-26T09:01:04;143.35;;;79.63;;
42876;SDS011;42341;40.498;72.818;2023-02-26T09:03:30;172.18;;;90.70;;
42876;SDS011;42341;40.498;72.818;2023-02-26T09:05:56;170.40;;;85.25;;
42876;SDS011;42341;40.498;72.818;2023-02-26T09:08:22;152.65;;;84.68;;
42876;SDS011;42341;40.498;72.818;2023-02-26T09:10:48;146.57;;;81.05;;
42876;SDS011;42341;40.498;72.818;2023-02-26T09:13:14;125.85;;;68.55;;
42876;SDS011;42341;40.498;72.818;2023-02-26T09:15:40;129.18;;;68.53;;
42876;SDS011;42341;40.498;72.818;2023-02-26T09:18:06;139.25;;;77.07;;
42876;SDS011;42341;40.498;72.818;2023-02-26T09:20:39;143.45;;;81.10;;
42876;SDS011;42341;40.498;72.818;2023-02-26T09:23:07;144.90;;;77.68;;
42876;SDS011;42341;40.498;72.818;2023-02-26T09:25:33;163.70;;;84.95;;
42876;SDS011;42341;40.498;72.818;2023-02-26T09:27:58;150.40;;;81.15;;
42876;SDS011;42341;40.498;72.818;2023-02-26T09:30:24;148.88;;;82.90;;
42876;SDS011;42341;40.498;72.818;2023-02-26T09:32:50;138.15;;;75.28;;
42876;SDS011;42341;40.498;72.818;2023-02-26T09:35:16;132.10;;;71.38;;
42876;SDS011;42341;40.498;72.818;2023-02-26T09:37:42;131.38;;;71.10;;
42876;SDS011;42341;40.498;72.818;2023-02-26T09:40:12;121.53;;;65.95;;
42876;SDS011;42341;40.498;72.818;2023-02-26T09:43:10;116.50;;;65.28;;
42876;SDS011;42341;40.498;72.818;2023-02-26T09:46:02;123.80;;;66.53;;
42876;SDS011;42341;40.498;72.818;2023-02-26T09:49:02;116.80;;;66.38;;
42876;SDS011;42341;40.498;72.818;2023-02-26T09:51:40;133.05;;;72.35;;
42876;SDS011;42341;40.498;72.818;2023-02-26T09:54:13;126.97;;;70.65;;
42876;SDS011;42341;40.498;72.818;2023-02-26T09:56:47;125.15;;;67.28;;
42876;SDS011;42341;40.498;72.818;2023-02-26T09:59:14;130.80;;;72.13;;
42876;SDS011;42341;40.498;72.818;2023-02-26T10:04:21;123.20;;;69.43;;
42876;SDS011;42341;40.498;72.818;2023-02-26T10:12:44;142.82;;;72.38;;
42876;SDS011;42341;40.498;72.818;2023-02-26T10:17:50;108.38;;;62.38;;
42876;SDS011;42341;40.498;72.818;2023-02-26T10:23:27;114.15;;;63.03;;
42876;SDS011;42341;40.498;72.818;2023-02-26T10:31:28;146.10;;;82.40;;
42876;SDS011;42341;40.498;72.818;2023-02-26T10:42:19;174.27;;;92.70;;
42876;SDS011;42341;40.498;72.818;2023-02-26T10:50:17;176.40;;;98.95;;
42876;SDS011;42341;40.498;72.818;2023-02-26T10:52:46;184.88;;;100.15;;
42876;SDS011;42341;40.498;72.818;2023-02-26T10:57:41;166.13;;;91.85;;
42876;SDS011;42341;40.498;72.818;2023-02-26T11:00:19;168.82;;;93.60;;
42876;SDS011;42341;40.498;72.818;2023-02-26T11:02:46;172.02;;;94.72;;
42876;SDS011;42341;40.498;72.818;2023-02-26T11:05:20;164.95;;;92.20;;
42876;SDS011;42341;40.498;72.818;2023-02-26T11:07:56;184.70;;;100.18;;
42876;SDS011;42341;40.498;72.818;2023-02-26T11:10:39;206.35;;;111.38;;
42876;SDS011;42341;40.498;72.818;2023-02-26T11:13:05;200.77;;;108.15;;
42876;SDS011;42341;40.498;72.818;2023-02-26T11:15:31;197.35;;;111.95;;
42876;SDS011;42341;40.498;72.818;2023-02-26T11:17:58;200.45;;;112.07;;
42876;SDS011;42341;40.498;72.818;2023-02-26T11:20:38;190.80;;;109.78;;
42876;SDS011;42341;40.498;72.818;2023-02-26T11:23:10;199.63;;;110.20;;
42876;SDS011;42341;40.498;72.818;2023-02-26T11:25:38;204.80;;;114.22;;
42876;SDS011;42341;40.498;72.818;2023-02-26T11:30:48;189.90;;;110.53;;
42876;SDS011;42341;40.498;72.818;2023-02-26T11:33:28;199.67;;;114.33;;
42876;SDS011;42341;40.498;72.818;2023-02-26T11:36:02;198.05;;;112.60;;
42876;SDS011;42341;40.498;72.818;2023-02-26T11:38:34;195.13;;;109.43;;
42876;SDS011;42341;40.498;72.818;2023-02-26T11:41:01;198.43;;;111.40;;
42876;SDS011;42341;40.498;72.818;2023-02-26T11:43:32;160.10;;;91.75;;
42876;SDS011;42341;40.498;72.818;2023-02-26T11:46:11;158.70;;;88.55;;
42876;SDS011;42341;40.498;72.818;2023-02-26T11:51:12;208.23;;;110.43;;
42876;SDS011;42341;40.498;72.818;2023-02-26T11:56:19;194.07;;;110.25;;
42876;SDS011;42341;40.498;72.818;2023-02-26T11:58:53;214.48;;;114.90;;
42876;SDS011;42341;40.498;72.818;2023-02-26T12:01:22;203.30;;;115.32;;
42876;SDS011;42341;40.498;72.818;2023-02-26T12:06:21;206.40;;;110.57;;
42876;SDS011;42341;40.498;72.818;2023-02-26T12:08:51;203.60;;;115.03;;
42876;SDS011;42341;40.498;72.818;2023-02-26T12:20:07;220.32;;;120.00;;
42876;SDS011;42341;40.498;72.818;2023-02-26T12:22:48;224.23;;;116.78;;
42876;SDS011;42341;40.498;72.818;2023-02-26T12:31:43;184.40;;;100.28;;
42876;SDS011;42341;40.498;72.818;2023-02-26T12:50:50;136.18;;;83.50;;
42876;SDS011;42341;40.498;72.818;2023-02-26T12:56:45;159.10;;;89.20;;
42876;SDS011;42341;40.498;72.818;2023-02-26T13:21:24;161.77;;;92.63;;
42876;SDS011;42341;40.498;72.818;2023-02-26T13:23:55;154.13;;;93.40;;
42876;SDS011;42341;40.498;72.818;2023-02-26T13:26:29;156.48;;;93.53;;
42876;SDS011;42341;40.498;72.818;2023-02-26T13:29:09;171.27;;;99.13;;
42876;SDS011;42341;40.498;72.818;2023-02-26T13:31:46;181.57;;;104.03;;
42876;SDS011;42341;40.498;72.818;2023-02-26T13:34:40;194.63;;;103.30;;
42876;SDS011;42341;40.498;72.818;2023-02-26T13:37:29;197.18;;;104.45;;
42876;SDS011;42341;40.498;72.818;2023-02-26T13:49:17;181.80;;;105.70;;
42876;SDS011;42341;40.498;72.818;2023-02-26T14:06:46;224.18;;;128.95;;
42876;SDS011;42341;40.498;72.818;2023-02-26T14:12:33;214.35;;;119.70;;
42876;SDS011;42341;40.498;72.818;2023-02-26T14:14:44;226.32;;;125.75;;
42876;SDS011;42341;40.498;72.818;2023-02-26T14:17:39;225.80;;;125.35;;
42876;SDS011;42341;40.498;72.818;2023-02-26T14:22:41;229.63;;;129.80;;
42876;SDS011;42341;40.498;72.818;2023-02-26T14:25:18;218.18;;;128.30;;
42876;SDS011;42341;40.498;72.818;2023-02-26T14:30:50;240.05;;;132.15;;
42876;SDS011;42341;40.498;72.818;2023-02-26T14:34:19;261.98;;;150.15;;
42876;SDS011;42341;40.498;72.818;2023-02-26T14:39:33;281.90;;;161.98;;
42876;SDS011;42341;40.498;72.818;2023-02-26T14:45:02;323.63;;;170.43;;
42876;SDS011;42341;40.498;72.818;2023-02-26T14:47:42;294.73;;;170.23;;
42876;SDS011;42341;40.498;72.818;2023-02-26T14:50:16;310.35;;;172.02;;
42876;SDS011;42341;40.498;72.818;2023-02-26T15:09:26;322.20;;;184.50;;
42876;SDS011;42341;40.498;72.818;2023-02-26T15:15:01;340.77;;;205.30;;
42876;SDS011;42341;40.498;72.818;2023-02-26T15:22:52;442.35;;;261.05;;
42876;SDS011;42341;40.498;72.818;2023-02-26T15:25:37;550.30;;;289.52;;
42876;SDS011;42341;40.498;72.818;2023-02-26T15:28:06;561.00;;;301.60;;
42876;SDS011;42341;40.498;72.818;2023-02-26T15:30:39;546.85;;;285.55;;
42876;SDS011;42341;40.498;72.818;2023-02-26T15:33:11;582.10;;;300.42;;
42876;SDS011;42341;40.498;72.818;2023-02-26T15:35:44;422.60;;;235.45;;
42876;SDS011;42341;40.498;72.818;2023-02-26T15:38:13;516.40;;;269.35;;
42876;SDS011;42341;40.498;72.818;2023-02-26T15:40:39;400.65;;;229.25;;
42876;SDS011;42341;40.498;72.818;2023-02-26T15:43:05;422.23;;;241.77;;
42876;SDS011;42341;40.498;72.818;2023-02-26T15:45:52;414.42;;;242.23;;
42876;SDS011;42341;40.498;72.818;2023-02-26T15:48:25;420.40;;;249.15;;
42876;SDS011;42341;40.498;72.818;2023-02-26T15:51:02;435.52;;;259.60;;
42876;SDS011;42341;40.498;72.818;2023-02-26T15:56:00;478.05;;;281.52;;
42876;SDS011;42341;40.498;72.818;2023-02-26T15:58:34;484.80;;;287.25;;
42876;SDS011;42341;40.498;72.818;2023-02-26T16:01:07;488.75;;;292.83;;
42876;SDS011;42341;40.498;72.818;2023-02-26T16:03:38;490.00;;;293.67;;
42876;SDS011;42341;40.498;72.818;2023-02-26T16:06:05;556.33;;;321.25;;
42876;SDS011;42341;40.498;72.818;2023-02-26T16:08:35;558.95;;;320.15;;
42876;SDS011;42341;40.498;72.818;2023-02-26T16:11:03;554.35;;;320.05;;
42876;SDS011;42341;40.498;72.818;2023-02-26T16:13:31;570.88;;;330.38;;
42876;SDS011;42341;40.498;72.818;2023-02-26T16:16:03;524.58;;;312.88;;
42876;SDS011;42341;40.498;72.818;2023-02-26T16:18:34;520.72;;;307.67;;
42876;SDS011;42341;40.498;72.818;2023-02-26T16:21:04;518.30;;;312.02;;
42876;SDS011;42341;40.498;72.818;2023-02-26T16:23:37;534.08;;;312.92;;
42876;SDS011;42341;40.498;72.818;2023-02-26T16:26:08;556.35;;;323.17;;
42876;SDS011;42341;40.498;72.818;2023-02-26T16:28:52;551.67;;;327.02;;
42876;SDS011;42341;40.498;72.818;2023-02-26T16:31:26;540.25;;;307.20;;
42876;SDS011;42341;40.498;72.818;2023-02-26T16:33:57;486.77;;;283.20;;
42876;SDS011;42341;40.498;72.818;2023-02-26T16:36:29;502.50;;;279.92;;
42876;SDS011;42341;40.498;72.818;2023-02-26T16:41:36;513.50;;;270.05;;
42876;SDS011;42341;40.498;72.818;2023-02-26T16:46:54;498.38;;;265.35;;
42876;SDS011;42341;40.498;72.818;2023-02-26T16:49:23;481.60;;;265.40;;
42876;SDS011;42341;40.498;72.818;2023-02-26T16:51:51;476.95;;;260.45;;
42876;SDS011;42341;40.498;72.818;2023-02-26T16:54:24;494.10;;;260.80;;
42876;SDS011;42341;40.498;72.818;2023-02-26T16:57:03;504.77;;;269.10;;
42876;SDS011;42341;40.498;72.818;2023-02-26T16:59:52;447.35;;;247.82;;
42876;SDS011;42341;40.498;72.818;2023-02-26T17:02:30;443.95;;;240.35;;
42876;SDS011;42341;40.498;72.818;2023-02-26T17:05:06;424.10;;;227.38;;
42876;SDS011;42341;40.498;72.818;2023-02-26T17:07:55;389.38;;;218.63;;
42876;SDS011;42341;40.498;72.818;2023-02-26T17:10:34;337.63;;;191.90;;
42876;SDS011;42341;40.498;72.818;2023-02-26T17:15:37;472.27;;;251.27;;
42876;SDS011;42341;40.498;72.818;2023-02-26T17:18:05;444.77;;;239.60;;
42876;SDS011;42341;40.498;72.818;2023-02-26T17:20:32;433.05;;;232.55;;
42876;SDS011;42341;40.498;72.818;2023-02-26T17:23:00;469.08;;;257.10;;
42876;SDS011;42341;40.498;72.818;2023-02-26T17:25:35;505.98;;;268.05;;
42876;SDS011;42341;40.498;72.818;2023-02-26T17:28:04;481.33;;;250.00;;
42876;SDS011;42341;40.498;72.818;2023-02-26T17:30:31;467.30;;;242.45;;
42876;SDS011;42341;40.498;72.818;2023-02-26T17:32:59;460.63;;;233.65;;
42876;SDS011;42341;40.498;72.818;2023-02-26T17:35:26;460.70;;;238.90;;
42876;SDS011;42341;40.498;72.818;2023-02-26T17:37:53;417.02;;;214.38;;
42876;SDS011;42341;40.498;72.818;2023-02-26T17:42:48;293.30;;;151.55;;
42876;SDS011;42341;40.498;72.818;2023-02-26T17:45:14;293.63;;;146.15;;
42876;SDS011;42341;40.498;72.818;2023-02-26T17:47:41;258.00;;;135.00;;
42876;SDS011;42341;40.498;72.818;2023-02-26T17:50:27;308.83;;;155.10;;
42876;SDS011;42341;40.498;72.818;2023-02-26T17:53:23;260.10;;;139.05;;
42876;SDS011;42341;40.498;72.818;2023-02-26T17:55:57;264.45;;;136.18;;
42876;SDS011;42341;40.498;72.818;2023-02-26T17:58:28;273.20;;;144.65;;
42876;SDS011;42341;40.498;72.818;2023-02-26T18:00:58;270.90;;;140.45;;
42876;SDS011;42341;40.498;72.818;2023-02-26T18:03:24;293.13;;;150.85;;
42876;SDS011;42341;40.498;72.818;2023-02-26T18:05:51;272.80;;;147.50;;
42876;SDS011;42341;40.498;72.818;2023-02-26T18:08:29;275.67;;;149.75;;
42876;SDS011;42341;40.498;72.818;2023-02-26T18:10:57;528.97;;;270.15;;
42876;SDS011;42341;40.498;72.818;2023-02-26T18:13:24;371.58;;;195.82;;
42876;SDS011;42341;40.498;72.818;2023-02-26T18:15:52;343.45;;;181.20;;
42876;SDS011;42341;40.498;72.818;2023-02-26T18:18:20;300.45;;;158.48;;
42876;SDS011;42341;40.498;72.818;2023-02-26T18:20:47;291.42;;;153.50;;
42876;SDS011;42341;40.498;72.818;2023-02-26T18:23:13;276.30;;;148.18;;
42876;SDS011;42341;40.498;72.818;2023-02-26T18:25:41;266.02;;;139.98;;
42876;SDS011;42341;40.498;72.818;2023-02-26T18:28:12;266.77;;;142.25;;
42876;SDS011;42341;40.498;72.818;2023-02-26T18:30:46;292.95;;;141.23;;
42876;SDS011;42341;40.498;72.818;2023-02-26T18:33:13;257.85;;;127.85;;
42876;SDS011;42341;40.498;72.818;2023-02-26T18:35:43;266.65;;;131.80;;
42876;SDS011;42341;40.498;72.818;2023-02-26T18:38:14;267.90;;;132.25;;
42876;SDS011;42341;40.498;72.818;2023-02-26T18:40:41;254.82;;;134.40;;
42876;SDS011;42341;40.498;72.818;2023-02-26T18:43:08;259.30;;;135.05;;
42876;SDS011;42341;40.498;72.818;2023-02-26T18:45:40;271.42;;;134.65;;
42876;SDS011;42341;40.498;72.818;2023-02-26T18:48:10;259.35;;;134.27;;
42876;SDS011;42341;40.498;72.818;2023-02-26T18:50:40;275.10;;;138.03;;
42876;SDS011;42341;40.498;72.818;2023-02-26T18:53:07;290.17;;;140.82;;
42876;SDS011;42341;40.498;72.818;2023-02-26T18:55:33;279.73;;;136.48;;
42876;SDS011;42341;40.498;72.818;2023-02-26T18:57:59;272.23;;;136.75;;
42876;SDS011;42341;40.498;72.818;2023-02-26T19:00:25;262.90;;;131.38;;
42876;SDS011;42341;40.498;72.818;2023-02-26T19:02:53;272.23;;;133.38;;
42876;SDS011;42341;40.498;72.818;2023-02-26T19:05:20;287.23;;;138.90;;
42876;SDS011;42341;40.498;72.818;2023-02-26T19:07:51;286.30;;;142.65;;
42876;SDS011;42341;40.498;72.818;2023-02-26T19:10:18;374.85;;;185.32;;